sensor_id;sensor_type;location;lat;lon;timestamp;pressure;altitude;pressure_sealevel;temperature;humidity
6694;BME280;3384;42.628;23.380;2023-07-31T00:01:55;93869.16;;;21.83;100.00
6694;BME280;3384;42.628;23.380;2023-07-31T00:04:22;93870.94;;;21.62;100.00
6694;BME280;3384;42.628;23.380;2023-07-31T00:06:49;93884.53;;;21.58;100.00
6694;BME280;3384;42.628;23.380;2023-07-31T00:09:15;93891.69;;;21.73;100.00
6694;BME280;3384;42.628;23.380;2023-07-31T00:11:42;93888.72;;;21.96;100.00
6694;BME280;3384;42.628;23.380;2023-07-31T00:14:09;93884.44;;;21.95;100.00
6694;BME280;3384;42.628;23.380;2023-07-31T00:16:36;93896.91;;;21.92;100.00
6694;BME280;3384;42.628;23.380;2023-07-31T00:19:04;93891.47;;;21.96;100.00
6694;BME280;3384;42.628;23.380;2023-07-31T00:21:31;93880.63;;;22.03;100.00
6694;BME280;3384;42.628;23.380;2023-07-31T00:23:57;93885.25;;;21.95;100.00
6694;BME280;3384;42.628;23.380;2023-07-31T00:26:24;93884.00;;;21.86;100.00
6694;BME280;3384;42.628;23.380;2023-07-31T00:28:51;93873.69;;;21.65;100.00
6694;BME280;3384;42.628;23.380;2023-07-31T00:31:18;93880.09;;;21.39;100.00
6694;BME280;3384;42.628;23.380;2023-07-31T00:33:45;93868.22;;;21.62;100.00
6694;BME280;3384;42.628;23.380;2023-07-31T00:36:13;93863.66;;;21.29;100.00
6694;BME280;3384;42.628;23.380;2023-07-31T00:38:39;93859.34;;;21.24;100.00
6694;BME280;3384;42.628;23.380;2023-07-31T00:41:06;93857.53;;;21.39;100.00
6694;BME280;3384;42.628;23.380;2023-07-31T00:43:33;93846.53;;;21.28;100.00
6694;BME280;3384;42.628;23.380;2023-07-31T00:46:00;93850.75;;;21.22;100.00
6694;BME280;3384;42.628;23.380;2023-07-31T00:48:27;93850.78;;;21.26;100.00
6694;BME280;3384;42.628;23.380;2023-07-31T00:50:54;93845.19;;;21.59;100.00
6694;BME280;3384;42.628;23.380;2023-07-31T00:53:23;93844.22;;;21.81;100.00
6694;BME280;3384;42.628;23.380;2023-07-31T00:55:51;93855.81;;;21.71;100.00
6694;BME280;3384;42.628;23.380;2023-07-31T00:58:18;93856.78;;;21.96;100.00
6694;BME280;3384;42.628;23.380;2023-07-31T01:00:45;93848.25;;;22.01;100.00
6694;BME280;3384;42.628;23.380;2023-07-31T01:03:12;93846.41;;;21.62;100.00
6694;BME280;3384;42.628;23.380;2023-07-31T01:05:43;93852.94;;;21.50;100.00
6694;BME280;3384;42.628;23.380;2023-07-31T01:08:17;93853.41;;;21.63;100.00
6694;BME280;3384;42.628;23.380;2023-07-31T01:10:51;93838.63;;;21.67;100.00
6694;BME280;3384;42.628;23.380;2023-07-31T01:13:21;93840.78;;;21.40;100.00
6694;BME280;3384;42.628;23.380;2023-07-31T01:15:48;93838.56;;;21.09;100.00
6694;BME280;3384;42.628;23.380;2023-07-31T01:18:15;93837.00;;;21.08;100.00
6694;BME280;3384;42.628;23.380;2023-07-31T01:20:42;93838.13;;;21.04;100.00
6694;BME280;3384;42.628;23.380;2023-07-31T01:23:26;93835.50;;;20.78;100.00
6694;BME280;3384;42.628;23.380;2023-07-31T01:26:04;93829.47;;;20.95;100.00
6694;BME280;3384;42.628;23.380;2023-07-31T01:28:38;93832.47;;;21.23;100.00
6694;BME280;3384;42.628;23.380;2023-07-31T01:31:07;93825.59;;;20.96;100.00
6694;BME280;3384;42.628;23.380;2023-07-31T01:33:37;93822.81;;;20.92;100.00
6694;BME280;3384;42.628;23.380;2023-07-31T01:36:05;93822.88;;;20.96;100.00
6694;BME280;3384;42.628;23.380;2023-07-31T01:38:32;93822.25;;;21.13;100.00
6694;BME280;3384;42.628;23.380;2023-07-31T01:41:00;93817.28;;;21.22;100.00
6694;BME280;3384;42.628;23.380;2023-07-31T01:43:27;93815.56;;;21.07;100.00
6694;BME280;3384;42.628;23.380;2023-07-31T01:45:54;93810.50;;;21.05;100.00
6694;BME280;3384;42.628;23.380;2023-07-31T01:48:21;93806.78;;;20.84;100.00
6694;BME280;3384;42.628;23.380;2023-07-31T01:50:48;93811.47;;;20.87;100.00
6694;BME280;3384;42.628;23.380;2023-07-31T01:53:15;93813.78;;;20.85;100.00
6694;BME280;3384;42.628;23.380;2023-07-31T01:55:41;93817.09;;;20.64;100.00
6694;BME280;3384;42.628;23.380;2023-07-31T01:58:10;93822.94;;;20.66;100.00
6694;BME280;3384;42.628;23.380;2023-07-31T02:00:36;93823.59;;;20.53;100.00
6694;BME280;3384;42.628;23.380;2023-07-31T02:03:03;93829.41;;;20.55;100.00
6694;BME280;3384;42.628;23.380;2023-07-31T02:05:30;93829.75;;;20.50;100.00
6694;BME280;3384;42.628;23.380;2023-07-31T02:07:57;93823.22;;;20.54;100.00
6694;BME280;3384;42.628;23.380;2023-07-31T02:10:23;93840.38;;;20.62;100.00
6694;BME280;3384;42.628;23.380;2023-07-31T02:12:50;93837.97;;;20.53;100.00
6694;BME280;3384;42.628;23.380;2023-07-31T02:15:18;93822.72;;;20.45;100.00
6694;BME280;3384;42.628;23.380;2023-07-31T02:17:46;93827.63;;;20.66;100.00
6694;BME280;3384;42.628;23.380;2023-07-31T02:20:13;93844.84;;;20.77;100.00
6694;BME280;3384;42.628;23.380;2023-07-31T02:22:40;93842.50;;;20.79;100.00
6694;BME280;3384;42.628;23.380;2023-07-31T02:25:07;93837.66;;;20.62;100.00
6694;BME280;3384;42.628;23.380;2023-07-31T02:27:34;93849.88;;;20.75;100.00
6694;BME280;3384;42.628;23.380;2023-07-31T02:30:01;93837.75;;;20.69;100.00
6694;BME280;3384;42.628;23.380;2023-07-31T02:32:29;93839.19;;;20.56;100.00
6694;BME280;3384;42.628;23.380;2023-07-31T02:34:56;93833.00;;;20.59;100.00
6694;BME280;3384;42.628;23.380;2023-07-31T02:37:23;93834.66;;;20.70;100.00
6694;BME280;3384;42.628;23.380;2023-07-31T02:39:50;93833.88;;;20.70;100.00
6694;BME280;3384;42.628;23.380;2023-07-31T02:42:16;93837.13;;;20.82;100.00
6694;BME280;3384;42.628;23.380;2023-07-31T02:44:43;93832.66;;;20.67;100.00
6694;BME280;3384;42.628;23.380;2023-07-31T02:47:10;93832.28;;;21.02;100.00
6694;BME280;3384;42.628;23.380;2023-07-31T02:49:38;93833.81;;;20.66;100.00
6694;BME280;3384;42.628;23.380;2023-07-31T02:52:06;93836.25;;;20.75;100.00
6694;BME280;3384;42.628;23.380;2023-07-31T02:54:32;93841.31;;;20.73;100.00
6694;BME280;3384;42.628;23.380;2023-07-31T02:56:59;93838.47;;;20.99;100.00
6694;BME280;3384;42.628;23.380;2023-07-31T02:59:27;93840.47;;;21.05;100.00
6694;BME280;3384;42.628;23.380;2023-07-31T03:01:54;93849.91;;;21.15;100.00
6694;BME280;3384;42.628;23.380;2023-07-31T03:04:21;93839.97;;;20.93;100.00
6694;BME280;3384;42.628;23.380;2023-07-31T03:06:49;93841.78;;;20.82;100.00
6694;BME280;3384;42.628;23.380;2023-07-31T03:09:16;93847.56;;;21.13;100.00
6694;BME280;3384;42.628;23.380;2023-07-31T03:11:43;93845.91;;;21.02;100.00
6694;BME280;3384;42.628;23.380;2023-07-31T03:14:10;93846.03;;;21.16;100.00
6694;BME280;3384;42.628;23.380;2023-07-31T03:16:36;93845.28;;;21.19;100.00
6694;BME280;3384;42.628;23.380;2023-07-31T03:19:03;93855.31;;;21.08;100.00
6694;BME280;3384;42.628;23.380;2023-07-31T03:21:30;93849.97;;;21.22;100.00
6694;BME280;3384;42.628;23.380;2023-07-31T03:23:58;93859.88;;;21.00;100.00
6694;BME280;3384;42.628;23.380;2023-07-31T03:26:25;93868.94;;;21.11;100.00
6694;BME280;3384;42.628;23.380;2023-07-31T03:28:52;93869.25;;;21.03;100.00
6694;BME280;3384;42.628;23.380;2023-07-31T03:31:19;93856.75;;;20.98;100.00
6694;BME280;3384;42.628;23.380;2023-07-31T03:33:45;93856.94;;;21.16;100.00
6694;BME280;3384;42.628;23.380;2023-07-31T03:36:12;93856.94;;;21.16;100.00
6694;BME280;3384;42.628;23.380;2023-07-31T03:38:39;93857.66;;;21.09;100.00
6694;BME280;3384;42.628;23.380;2023-07-31T03:41:07;93869.44;;;21.20;100.00
6694;BME280;3384;42.628;23.380;2023-07-31T03:43:33;93863.09;;;21.09;100.00
6694;BME280;3384;42.628;23.380;2023-07-31T03:46:00;93863.19;;;21.20;100.00
6694;BME280;3384;42.628;23.380;2023-07-31T03:48:27;93860.88;;;21.22;100.00
6694;BME280;3384;42.628;23.380;2023-07-31T03:50:54;93882.63;;;21.15;100.00
6694;BME280;3384;42.628;23.380;2023-07-31T03:53:22;93868.50;;;21.06;100.00
6694;BME280;3384;42.628;23.380;2023-07-31T03:55:48;93870.63;;;20.90;100.00
6694;BME280;3384;42.628;23.380;2023-07-31T03:58:16;93874.63;;;20.96;100.00
6694;BME280;3384;42.628;23.380;2023-07-31T04:00:43;93892.38;;;20.83;100.00
6694;BME280;3384;42.628;23.380;2023-07-31T04:03:10;93888.44;;;21.13;100.00
6694;BME280;3384;42.628;23.380;2023-07-31T04:05:38;93889.44;;;20.95;100.00
6694;BME280;3384;42.628;23.380;2023-07-31T04:08:05;93886.34;;;21.00;100.00
6694;BME280;3384;42.628;23.380;2023-07-31T04:10:32;93893.38;;;21.01;100.00
6694;BME280;3384;42.628;23.380;2023-07-31T04:12:58;93886.34;;;21.00;100.00
6694;BME280;3384;42.628;23.380;2023-07-31T04:15:27;93887.78;;;20.90;100.00
6694;BME280;3384;42.628;23.380;2023-07-31T04:17:53;93885.34;;;20.82;100.00
6694;BME280;3384;42.628;23.380;2023-07-31T04:20:20;93891.41;;;20.98;100.00
6694;BME280;3384;42.628;23.380;2023-07-31T04:22:48;93891.13;;;21.10;100.00
6694;BME280;3384;42.628;23.380;2023-07-31T04:25:15;93900.25;;;20.91;100.00
6694;BME280;3384;42.628;23.380;2023-07-31T04:27:41;93893.53;;;20.82;100.00
6694;BME280;3384;42.628;23.380;2023-07-31T04:30:09;93890.97;;;20.96;100.00
6694;BME280;3384;42.628;23.380;2023-07-31T04:32:37;93903.50;;;21.00;100.00
6694;BME280;3384;42.628;23.380;2023-07-31T04:35:04;93898.03;;;20.97;100.00
6694;BME280;3384;42.628;23.380;2023-07-31T04:37:31;93897.38;;;21.10;100.00
6694;BME280;3384;42.628;23.380;2023-07-31T04:39:58;93893.94;;;20.84;100.00
6694;BME280;3384;42.628;23.380;2023-07-31T04:42:25;93890.59;;;20.97;100.00
6694;BME280;3384;42.628;23.380;2023-07-31T04:44:52;93891.13;;;21.10;100.00
6694;BME280;3384;42.628;23.380;2023-07-31T04:47:19;93887.50;;;20.99;100.00
6694;BME280;3384;42.628;23.380;2023-07-31T04:49:47;93899.41;;;21.20;100.00
6694;BME280;3384;42.628;23.380;2023-07-31T04:52:14;93907.03;;;21.04;100.00
6694;BME280;3384;42.628;23.380;2023-07-31T04:54:41;93899.28;;;21.06;100.00
6694;BME280;3384;42.628;23.380;2023-07-31T04:57:08;93899.44;;;21.24;100.00
6694;BME280;3384;42.628;23.380;2023-07-31T04:59:35;93886.16;;;21.19;100.00
6694;BME280;3384;42.628;23.380;2023-07-31T05:02:02;93885.19;;;21.41;100.00
6694;BME280;3384;42.628;23.380;2023-07-31T05:04:29;93891.19;;;21.17;100.00
6694;BME280;3384;42.628;23.380;2023-07-31T05:06:57;93891.25;;;21.24;100.00
6694;BME280;3384;42.628;23.380;2023-07-31T05:09:24;93892.59;;;21.40;100.00
6694;BME280;3384;42.628;23.380;2023-07-31T05:11:51;93887.22;;;21.51;100.00
6694;BME280;3384;42.628;23.380;2023-07-31T05:14:17;93884.28;;;21.26;100.00
6694;BME280;3384;42.628;23.380;2023-07-31T05:16:45;93884.44;;;21.44;100.00
6694;BME280;3384;42.628;23.380;2023-07-31T05:19:12;93891.00;;;21.36;100.00
6694;BME280;3384;42.628;23.380;2023-07-31T05:21:39;93883.63;;;21.40;100.00
6694;BME280;3384;42.628;23.380;2023-07-31T05:24:08;93883.31;;;21.52;100.00
6694;BME280;3384;42.628;23.380;2023-07-31T05:26:34;93886.09;;;21.59;100.00
6694;BME280;3384;42.628;23.380;2023-07-31T05:29:01;93887.47;;;21.79;100.00
6694;BME280;3384;42.628;23.380;2023-07-31T05:31:28;93887.50;;;21.83;100.00
6694;BME280;3384;42.628;23.380;2023-07-31T05:33:55;93886.94;;;21.63;100.00
6694;BME280;3384;42.628;23.380;2023-07-31T05:36:22;93901.94;;;21.90;100.00
6694;BME280;3384;42.628;23.380;2023-07-31T05:38:48;93896.09;;;21.88;100.00
6694;BME280;3384;42.628;23.380;2023-07-31T05:41:17;93895.78;;;22.00;100.00
6694;BME280;3384;42.628;23.380;2023-07-31T05:43:44;93895.75;;;21.93;100.00
6694;BME280;3384;42.628;23.380;2023-07-31T05:46:11;93878.22;;;21.98;100.00
6694;BME280;3384;42.628;23.380;2023-07-31T05:48:38;93877.44;;;21.97;100.00
6694;BME280;3384;42.628;23.380;2023-07-31T05:51:05;93874.59;;;21.80;100.00
6694;BME280;3384;42.628;23.380;2023-07-31T05:53:32;93896.91;;;21.92;100.00
6694;BME280;3384;42.628;23.380;2023-07-31T05:55:59;93888.38;;;22.01;100.00
6694;BME280;3384;42.628;23.380;2023-07-31T05:58:27;93901.94;;;21.87;100.00
6694;BME280;3384;42.628;23.380;2023-07-31T06:00:54;93919.06;;;21.84;100.00
6694;BME280;3384;42.628;23.380;2023-07-31T06:03:21;93899.59;;;21.89;100.00
6694;BME280;3384;42.628;23.380;2023-07-31T06:05:48;93907.13;;;22.06;100.00
6694;BME280;3384;42.628;23.380;2023-07-31T06:08:14;93904.06;;;22.11;100.00
6694;BME280;3384;42.628;23.380;2023-07-31T06:10:41;93925.53;;;22.16;100.00
6694;BME280;3384;42.628;23.380;2023-07-31T06:13:08;93907.13;;;22.06;100.00
6694;BME280;3384;42.628;23.380;2023-07-31T06:15:36;93915.66;;;21.97;100.00
6694;BME280;3384;42.628;23.380;2023-07-31T06:18:03;93898.97;;;22.13;100.00
6694;BME280;3384;42.628;23.380;2023-07-31T06:20:33;93907.66;;;22.25;100.00
6694;BME280;3384;42.628;23.380;2023-07-31T06:23:00;93897.97;;;22.38;100.00
6694;BME280;3384;42.628;23.380;2023-07-31T06:25:26;93894.72;;;22.15;100.00
6694;BME280;3384;42.628;23.380;2023-07-31T06:27:53;93897.88;;;22.24;100.00
6694;BME280;3384;42.628;23.380;2023-07-31T06:30:20;93891.22;;;22.18;100.00
6694;BME280;3384;42.628;23.380;2023-07-31T06:32:48;93901.41;;;22.28;100.00
6694;BME280;3384;42.628;23.380;2023-07-31T06:35:15;93922.78;;;22.16;100.00
6694;BME280;3384;42.628;23.380;2023-07-31T06:37:42;93903.34;;;22.21;100.00
6694;BME280;3384;42.628;23.380;2023-07-31T06:40:10;93911.22;;;22.36;100.00
6694;BME280;3384;42.628;23.380;2023-07-31T06:42:37;93895.53;;;22.23;100.00
6694;BME280;3384;42.628;23.380;2023-07-31T06:45:05;93908.88;;;22.38;100.00
6694;BME280;3384;42.628;23.380;2023-07-31T06:47:32;93913.16;;;22.32;100.00
6694;BME280;3384;42.628;23.380;2023-07-31T06:50:00;93906.06;;;22.21;100.00
6694;BME280;3384;42.628;23.380;2023-07-31T06:52:27;93895.94;;;22.28;100.00
6694;BME280;3384;42.628;23.380;2023-07-31T06:55:03;93908.53;;;22.43;100.00
6694;BME280;3384;42.628;23.380;2023-07-31T06:57:30;93905.47;;;22.52;100.00
6694;BME280;3384;42.628;23.380;2023-07-31T06:59:57;93905.09;;;22.53;100.00
6694;BME280;3384;42.628;23.380;2023-07-31T07:02:24;93910.72;;;22.20;100.00
6694;BME280;3384;42.628;23.380;2023-07-31T07:04:51;93907.66;;;22.29;100.00
6694;BME280;3384;42.628;23.380;2023-07-31T07:07:19;93899.00;;;22.16;100.00
6694;BME280;3384;42.628;23.380;2023-07-31T07:09:46;93907.28;;;22.30;100.00
6694;BME280;3384;42.628;23.380;2023-07-31T07:12:13;93892.41;;;22.24;100.00
6694;BME280;3384;42.628;23.380;2023-07-31T07:14:40;93893.78;;;22.55;100.00
6694;BME280;3384;42.628;23.380;2023-07-31T07:17:07;93899.47;;;22.25;100.00
6694;BME280;3384;42.628;23.380;2023-07-31T07:19:33;93901.47;;;22.39;100.00
6694;BME280;3384;42.628;23.380;2023-07-31T07:22:00;93894.09;;;22.39;100.00
6694;BME280;3384;42.628;23.380;2023-07-31T07:24:29;93898.75;;;22.39;100.00
6694;BME280;3384;42.628;23.380;2023-07-31T07:26:55;93925.63;;;22.37;100.00
6694;BME280;3384;42.628;23.380;2023-07-31T07:29:22;93919.06;;;22.45;100.00
6694;BME280;3384;42.628;23.380;2023-07-31T07:31:49;93930.72;;;22.38;100.00
6694;BME280;3384;42.628;23.380;2023-07-31T07:34:16;93912.00;;;22.37;100.00
6694;BME280;3384;42.628;23.380;2023-07-31T07:36:43;93934.22;;;22.32;100.00
6694;BME280;3384;42.628;23.380;2023-07-31T07:39:10;93921.78;;;22.41;100.00
6694;BME280;3384;42.628;23.380;2023-07-31T07:41:38;93914.75;;;22.44;100.00
6694;BME280;3384;42.628;23.380;2023-07-31T07:44:05;93923.09;;;22.72;100.00
6694;BME280;3384;42.628;23.380;2023-07-31T07:46:32;93935.19;;;22.64;100.00
6694;BME280;3384;42.628;23.380;2023-07-31T07:48:59;93935.06;;;22.46;100.00
6694;BME280;3384;42.628;23.380;2023-07-31T07:51:26;93924.53;;;22.45;100.00
6694;BME280;3384;42.628;23.380;2023-07-31T07:53:53;93921.19;;;22.76;100.00
6694;BME280;3384;42.628;23.380;2023-07-31T07:56:20;93929.41;;;22.79;100.00
6694;BME280;3384;42.628;23.380;2023-07-31T07:58:49;93956.41;;;23.02;100.00
6694;BME280;3384;42.628;23.380;2023-07-31T08:01:16;93942.34;;;22.96;100.00
6694;BME280;3384;42.628;23.380;2023-07-31T08:03:43;93940.00;;;22.91;100.00
6694;BME280;3384;42.628;23.380;2023-07-31T08:06:10;93934.16;;;23.00;100.00
6694;BME280;3384;42.628;23.380;2023-07-31T08:08:37;93935.81;;;23.25;100.00
6694;BME280;3384;42.628;23.380;2023-07-31T08:11:04;93950.69;;;23.28;100.00
6694;BME280;3384;42.628;23.380;2023-07-31T08:13:31;93922.16;;;23.32;100.00
6694;BME280;3384;42.628;23.380;2023-07-31T08:15:59;93941.59;;;23.10;100.00
6694;BME280;3384;42.628;23.380;2023-07-31T08:18:26;93919.31;;;22.97;100.00
6694;BME280;3384;42.628;23.380;2023-07-31T08:20:53;93952.25;;;23.36;100.00
6694;BME280;3384;42.628;23.380;2023-07-31T08:23:20;93944.84;;;23.43;100.00
6694;BME280;3384;42.628;23.380;2023-07-31T08:25:47;93933.41;;;23.06;100.00
6694;BME280;3384;42.628;23.380;2023-07-31T08:28:15;93925.66;;;23.26;100.00
6694;BME280;3384;42.628;23.380;2023-07-31T08:30:42;93949.88;;;23.24;100.00
6694;BME280;3384;42.628;23.380;2023-07-31T08:33:10;93941.19;;;23.04;100.00
6694;BME280;3384;42.628;23.380;2023-07-31T08:35:37;93933.09;;;23.22;100.00
6694;BME280;3384;42.628;23.380;2023-07-31T08:38:04;93939.38;;;23.29;100.00
6694;BME280;3384;42.628;23.380;2023-07-31T08:40:30;93928.84;;;23.42;100.00
6694;BME280;3384;42.628;23.380;2023-07-31T08:42:57;93929.59;;;23.49;100.00
6694;BME280;3384;42.628;23.380;2023-07-31T08:45:28;93918.66;;;23.46;100.00
6694;BME280;3384;42.628;23.380;2023-07-31T08:47:56;93936.28;;;23.69;100.00
6694;BME280;3384;42.628;23.380;2023-07-31T08:50:24;93933.16;;;23.71;100.00
6694;BME280;3384;42.628;23.380;2023-07-31T08:52:51;93941.75;;;23.80;100.00
6694;BME280;3384;42.628;23.380;2023-07-31T08:55:19;93930.03;;;23.65;100.00
6694;BME280;3384;42.628;23.380;2023-07-31T08:57:50;93955.84;;;23.78;100.00
6694;BME280;3384;42.628;23.380;2023-07-31T09:00:18;93927.66;;;23.64;100.00
6694;BME280;3384;42.628;23.380;2023-07-31T09:02:48;93948.00;;;23.80;100.00
6694;BME280;3384;42.628;23.380;2023-07-31T09:05:19;93937.06;;;23.80;100.00
6694;BME280;3384;42.628;23.380;2023-07-31T09:07:48;93932.00;;;23.96;100.00
6694;BME280;3384;42.628;23.380;2023-07-31T09:10:16;93926.53;;;24.11;100.00
6694;BME280;3384;42.628;23.380;2023-07-31T09:12:43;93926.09;;;24.37;100.00
6694;BME280;3384;42.628;23.380;2023-07-31T09:15:11;93933.16;;;24.13;100.00
6694;BME280;3384;42.628;23.380;2023-07-31T09:17:38;93915.94;;;23.74;100.00
6694;BME280;3384;42.628;23.380;2023-07-31T09:20:15;93923.75;;;23.72;100.00
6694;BME280;3384;42.628;23.380;2023-07-31T09:22:43;93907.34;;;23.86;100.00
6694;BME280;3384;42.628;23.380;2023-07-31T09:25:19;93936.66;;;24.28;100.00
6694;BME280;3384;42.628;23.380;2023-07-31T09:27:48;93896.41;;;24.03;100.00
6694;BME280;3384;42.628;23.380;2023-07-31T09:30:16;93914.41;;;24.15;99.48
6694;BME280;3384;42.628;23.380;2023-07-31T09:32:43;93908.06;;;24.36;98.56
6694;BME280;3384;42.628;23.380;2023-07-31T09:35:14;93902.53;;;24.57;97.08
6694;BME280;3384;42.628;23.380;2023-07-31T09:37:48;93911.97;;;24.49;94.65
6694;BME280;3384;42.628;23.380;2023-07-31T09:40:26;93904.50;;;24.56;96.62
6694;BME280;3384;42.628;23.380;2023-07-31T09:42:55;93899.88;;;24.36;100.00
6694;BME280;3384;42.628;23.380;2023-07-31T09:45:26;93901.03;;;24.35;100.00
6694;BME280;3384;42.628;23.380;2023-07-31T09:47:53;93899.03;;;24.53;100.00
6694;BME280;3384;42.628;23.380;2023-07-31T09:50:21;93900.16;;;24.80;98.96
6694;BME280;3384;42.628;23.380;2023-07-31T09:52:49;93891.13;;;24.83;97.08
6694;BME280;3384;42.628;23.380;2023-07-31T09:55:16;93903.97;;;25.00;96.97
6694;BME280;3384;42.628;23.380;2023-07-31T09:57:47;93890.25;;;25.00;97.37
6694;BME280;3384;42.628;23.380;2023-07-31T10:00:15;93904.31;;;25.09;95.64
6694;BME280;3384;42.628;23.380;2023-07-31T10:02:45;93901.22;;;25.00;94.84
6694;BME280;3384;42.628;23.380;2023-07-31T10:05:13;93888.41;;;24.76;92.26
6694;BME280;3384;42.628;23.380;2023-07-31T10:07:42;93900.50;;;24.89;93.04
6694;BME280;3384;42.628;23.380;2023-07-31T10:10:10;93878.59;;;24.75;96.33
6694;BME280;3384;42.628;23.380;2023-07-31T10:12:38;93887.13;;;24.98;96.59
6694;BME280;3384;42.628;23.380;2023-07-31T10:15:09;93895.75;;;25.00;91.69
6694;BME280;3384;42.628;23.380;2023-07-31T10:17:36;93920.72;;;25.16;93.11
6694;BME280;3384;42.628;23.380;2023-07-31T10:20:04;93905.41;;;25.25;89.75
6694;BME280;3384;42.628;23.380;2023-07-31T10:22:34;93881.88;;;25.28;85.81
6694;BME280;3384;42.628;23.380;2023-07-31T10:25:01;93882.72;;;25.14;89.59
6694;BME280;3384;42.628;23.380;2023-07-31T10:27:30;93892.84;;;25.28;89.35
6694;BME280;3384;42.628;23.380;2023-07-31T10:29:58;93896.47;;;25.07;90.09
6694;BME280;3384;42.628;23.380;2023-07-31T10:32:28;93906.13;;;25.40;84.36
6694;BME280;3384;42.628;23.380;2023-07-31T10:34:55;93890.34;;;25.54;81.42
6694;BME280;3384;42.628;23.380;2023-07-31T10:37:23;93888.53;;;25.30;81.84
6694;BME280;3384;42.628;23.380;2023-07-31T10:39:58;93867.34;;;25.38;83.18
6694;BME280;3384;42.628;23.380;2023-07-31T10:42:30;93877.41;;;25.55;80.26
6694;BME280;3384;42.628;23.380;2023-07-31T10:44:58;93862.44;;;25.59;81.17
6694;BME280;3384;42.628;23.380;2023-07-31T10:47:26;93880.78;;;25.73;81.04
6694;BME280;3384;42.628;23.380;2023-07-31T10:50:11;93876.91;;;25.70;81.85
6694;BME280;3384;42.628;23.380;2023-07-31T10:52:38;93887.94;;;25.63;83.28
6694;BME280;3384;42.628;23.380;2023-07-31T10:55:25;93869.16;;;25.55;83.91
6694;BME280;3384;42.628;23.380;2023-07-31T10:57:53;93872.72;;;25.52;81.48
6694;BME280;3384;42.628;23.380;2023-07-31T11:00:22;93870.09;;;25.82;79.04
6694;BME280;3384;42.628;23.380;2023-07-31T11:03:01;93857.91;;;25.86;78.85
6694;BME280;3384;42.628;23.380;2023-07-31T11:05:51;93866.22;;;25.79;78.10
6694;BME280;3384;42.628;23.380;2023-07-31T11:08:21;93857.44;;;25.95;75.32
6694;BME280;3384;42.628;23.380;2023-07-31T11:10:50;93860.47;;;25.63;74.73
6694;BME280;3384;42.628;23.380;2023-07-31T11:13:17;93843.91;;;25.74;75.81
6694;BME280;3384;42.628;23.380;2023-07-31T11:15:44;93861.16;;;25.74;72.38
6694;BME280;3384;42.628;23.380;2023-07-31T11:18:11;93862.34;;;25.73;74.12
6694;BME280;3384;42.628;23.380;2023-07-31T11:20:38;93859.09;;;25.85;73.05
6694;BME280;3384;42.628;23.380;2023-07-31T11:23:09;93853.63;;;25.82;73.44
6694;BME280;3384;42.628;23.380;2023-07-31T11:25:36;93851.59;;;25.93;74.41
6694;BME280;3384;42.628;23.380;2023-07-31T11:28:07;93842.28;;;25.80;72.38
6694;BME280;3384;42.628;23.380;2023-07-31T11:30:34;93856.25;;;25.99;72.22
6694;BME280;3384;42.628;23.380;2023-07-31T11:33:03;93869.22;;;25.95;72.04
6694;BME280;3384;42.628;23.380;2023-07-31T11:35:31;93851.66;;;25.86;71.08
6694;BME280;3384;42.628;23.380;2023-07-31T11:37:58;93858.94;;;26.06;68.84
6694;BME280;3384;42.628;23.380;2023-07-31T11:40:26;93834.72;;;25.91;70.81
6694;BME280;3384;42.628;23.380;2023-07-31T11:42:56;93844.06;;;26.00;70.20
6694;BME280;3384;42.628;23.380;2023-07-31T11:45:25;93846.72;;;26.11;68.78
6694;BME280;3384;42.628;23.380;2023-07-31T11:47:53;93844.72;;;26.15;68.42
6694;BME280;3384;42.628;23.380;2023-07-31T11:50:21;93838.09;;;26.12;69.38
6694;BME280;3384;42.628;23.380;2023-07-31T11:52:53;93846.75;;;26.07;69.96
6694;BME280;3384;42.628;23.380;2023-07-31T11:55:21;93835.00;;;26.07;71.16
6694;BME280;3384;42.628;23.380;2023-07-31T11:57:50;93841.66;;;26.43;72.31
6694;BME280;3384;42.628;23.380;2023-07-31T12:00:18;93844.50;;;26.36;72.38
6694;BME280;3384;42.628;23.380;2023-07-31T12:02:46;93851.16;;;25.98;73.43
6694;BME280;3384;42.628;23.380;2023-07-31T12:05:13;93827.84;;;26.13;73.95
6694;BME280;3384;42.628;23.380;2023-07-31T12:07:47;93855.59;;;26.25;72.62
6694;BME280;3384;42.628;23.380;2023-07-31T12:10:28;93830.09;;;26.25;70.04
6694;BME280;3384;42.628;23.380;2023-07-31T12:13:01;93830.44;;;26.30;69.84
6694;BME280;3384;42.628;23.380;2023-07-31T12:15:32;93825.03;;;26.20;71.17
6694;BME280;3384;42.628;23.380;2023-07-31T12:17:59;93829.94;;;26.39;68.25
6694;BME280;3384;42.628;23.380;2023-07-31T12:20:26;93820.47;;;26.43;69.30
6694;BME280;3384;42.628;23.380;2023-07-31T12:22:56;93828.75;;;26.40;69.18
6694;BME280;3384;42.628;23.380;2023-07-31T12:25:28;93818.84;;;26.46;68.53
6694;BME280;3384;42.628;23.380;2023-07-31T12:27:55;93807.56;;;26.71;68.25
6694;BME280;3384;42.628;23.380;2023-07-31T12:30:31;93799.38;;;26.67;68.86
6694;BME280;3384;42.628;23.380;2023-07-31T12:33:03;93814.38;;;26.59;69.19
6694;BME280;3384;42.628;23.380;2023-07-31T12:35:35;93806.13;;;26.59;68.15
6694;BME280;3384;42.628;23.380;2023-07-31T12:38:01;93797.50;;;26.61;69.81
6694;BME280;3384;42.628;23.380;2023-07-31T12:40:28;93843.09;;;26.54;71.90
6694;BME280;3384;42.628;23.380;2023-07-31T12:42:55;93804.22;;;26.56;73.61
6694;BME280;3384;42.628;23.380;2023-07-31T12:45:22;93816.47;;;26.48;74.58
6694;BME280;3384;42.628;23.380;2023-07-31T12:47:50;93797.91;;;26.55;73.99
6694;BME280;3384;42.628;23.380;2023-07-31T12:50:17;93829.63;;;26.67;70.07
6694;BME280;3384;42.628;23.380;2023-07-31T12:52:44;93806.25;;;26.48;69.45
6694;BME280;3384;42.628;23.380;2023-07-31T12:55:10;93804.88;;;26.33;70.68
6694;BME280;3384;42.628;23.380;2023-07-31T12:57:39;93794.53;;;26.44;69.81
6694;BME280;3384;42.628;23.380;2023-07-31T13:00:07;93786.53;;;26.61;69.40
6694;BME280;3384;42.628;23.380;2023-07-31T13:02:34;93798.16;;;26.72;68.43
6694;BME280;3384;42.628;23.380;2023-07-31T13:05:02;93787.88;;;26.76;67.20
6694;BME280;3384;42.628;23.380;2023-07-31T13:07:29;93782.50;;;26.65;66.80